Time;durP1;ratioP1;P1;durP2;ratioP2;P2;SDS_P1;SDS_P2;PMS_P1;PMS_P2;Temp;Humidity;BMP_temperature;BMP_pressure;BME280_temperature;BME280_humidity;BME280_pressure;Samples;Min_cycle;Max_cycle;Signal;HPM_P1;HPM_P2
2020/12/04 00:01:02;;;;;;;8.13;6.50;;;3.80;95.20;;;;;;6225595;28;20054;-75
2020/12/04 00:04:04;;;;;;;7.35;6.38;;;3.90;95.50;;;;;;6224870;28;20069;-74
2020/12/04 00:07:06;;;;;;;9.18;7.45;;;4.00;95.60;;;;;;6224719;28;20519;-74
2020/12/04 00:10:07;;;;;;;9.27;6.77;;;4.10;95.70;;;;;;6225577;28;20627;-75
2020/12/04 00:13:08;;;;;;;8.77;6.13;;;4.10;95.60;;;;;;6224682;28;20460;-74
2020/12/04 00:16:10;;;;;;;7.80;6.80;;;4.00;95.10;;;;;;6225101;28;20474;-74
2020/12/04 00:19:12;;;;;;;9.32;6.88;;;4.00;95.20;;;;;;6224679;28;20567;-74
2020/12/04 00:22:13;;;;;;;8.52;6.60;;;4.10;95.20;;;;;;6224836;28;20572;-74
2020/12/04 00:25:15;;;;;;;7.05;5.40;;;4.10;95.20;;;;;;6224098;28;20120;-74
2020/12/04 00:28:16;;;;;;;11.73;6.55;;;4.00;95.10;;;;;;6225033;28;20100;-75
2020/12/04 00:47:05;;;;;;;6.55;5.53;;;4.00;94.50;;;;;;6220237;28;20639;-75
2020/12/04 00:50:07;;;;;;;6.03;5.22;;;4.00;94.90;;;;;;6201248;28;20061;-75
2020/12/04 00:53:08;;;;;;;8.68;5.97;;;4.10;94.90;;;;;;6199381;28;20141;-75
2020/12/04 00:56:09;;;;;;;8.75;5.57;;;4.10;95.10;;;;;;6199545;28;20050;-75
2020/12/04 00:59:11;;;;;;;7.22;5.15;;;4.20;95.00;;;;;;6199388;28;20562;-75
2020/12/04 01:02:13;;;;;;;8.15;6.40;;;4.30;95.00;;;;;;6199796;28;20055;-75
2020/12/04 01:05:14;;;;;;;6.43;4.95;;;4.30;95.00;;;;;;6199348;28;20043;-75
2020/12/04 01:08:15;;;;;;;5.80;5.20;;;4.30;94.90;;;;;;6199594;28;20046;-75
2020/12/04 01:11:19;;;;;;;6.15;5.45;;;4.30;94.90;;;;;;6199195;28;20157;-75
2020/12/04 01:14:21;;;;;;;11.65;6.80;;;4.40;95.00;;;;;;6199791;28;20514;-75
2020/12/04 01:17:23;;;;;;;5.45;4.95;;;4.30;94.90;;;;;;6199409;28;20660;-75
2020/12/04 01:20:25;;;;;;;11.63;5.35;;;4.40;94.90;;;;;;6223489;28;20127;-75
2020/12/04 01:23:26;;;;;;;7.60;5.65;;;4.40;94.80;;;;;;6223177;28;20054;-75
2020/12/04 01:26:27;;;;;;;7.45;6.53;;;4.40;94.80;;;;;;6223526;28;20050;-75
2020/12/04 01:29:29;;;;;;;7.47;6.28;;;4.40;94.80;;;;;;6223693;28;20128;-75
2020/12/04 01:32:31;;;;;;;5.88;5.03;;;4.40;94.70;;;;;;6223285;28;20041;-75
2020/12/04 01:35:32;;;;;;;5.60;4.28;;;4.40;94.60;;;;;;6222970;28;20400;-75
2020/12/04 01:38:33;;;;;;;6.90;4.50;;;4.40;94.60;;;;;;6223274;28;20496;-75
2020/12/04 01:41:36;;;;;;;7.72;5.78;;;4.40;94.60;;;;;;6223164;28;20571;-75
2020/12/04 01:44:37;;;;;;;8.32;5.65;;;4.40;94.60;;;;;;6222808;28;20065;-75
2020/12/04 01:47:40;;;;;;;6.05;5.45;;;4.40;94.60;;;;;;6222703;28;20054;-74
2020/12/04 01:50:41;;;;;;;5.20;4.68;;;4.40;94.50;;;;;;6222287;28;20077;-75
2020/12/04 01:53:44;;;;;;;6.32;5.22;;;4.40;94.50;;;;;;6223572;28;20141;-75
2020/12/04 01:56:46;;;;;;;5.97;4.35;;;4.40;94.50;;;;;;6221846;28;20080;-75
2020/12/04 01:59:48;;;;;;;6.72;5.20;;;4.40;94.50;;;;;;6222752;28;20183;-75
2020/12/04 02:02:50;;;;;;;8.38;5.47;;;4.40;94.50;;;;;;6222288;28;20615;-75
2020/12/04 02:05:58;;;;;;;5.43;4.25;;;4.40;94.40;;;;;;6222365;28;20061;-75
2020/12/04 02:09:05;;;;;;;6.65;5.10;;;4.40;94.30;;;;;;6222320;28;20042;-75
2020/12/04 02:12:09;;;;;;;8.07;5.80;;;4.40;94.30;;;;;;6222034;28;20121;-75
2020/12/04 02:15:10;;;;;;;5.75;5.20;;;4.40;94.40;;;;;;6233428;28;20132;-74
2020/12/04 02:18:14;;;;;;;5.95;4.68;;;4.40;94.40;;;;;;6240472;28;20515;-75
2020/12/04 02:21:17;;;;;;;7.97;5.75;;;4.30;94.30;;;;;;6225085;28;20076;-74
2020/12/04 02:24:25;;;;;;;8.55;5.85;;;4.30;94.30;;;;;;6223685;28;20054;-75
2020/12/04 02:27:26;;;;;;;8.70;6.15;;;4.30;94.30;;;;;;6223212;28;20096;-75
2020/12/04 02:30:31;;;;;;;7.80;5.85;;;4.30;94.40;;;;;;6223029;28;20061;-74
2020/12/04 02:33:32;;;;;;;9.77;6.40;;;4.30;94.30;;;;;;6222491;28;20068;-75
2020/12/04 02:36:35;;;;;;;11.60;6.68;;;4.40;94.30;;;;;;6221458;28;20462;-74
2020/12/04 02:39:36;;;;;;;7.20;5.78;;;4.40;94.10;;;;;;6222310;28;20061;-75
2020/12/04 02:42:40;;;;;;;9.93;7.03;;;4.50;94.10;;;;;;6221501;28;20049;-75
2020/12/04 02:45:42;;;;;;;9.18;6.43;;;4.50;94.00;;;;;;6222118;28;20042;-75
2020/12/04 02:48:43;;;;;;;12.90;7.05;;;4.50;94.10;;;;;;6221486;28;20042;-75
2020/12/04 02:51:46;;;;;;;8.38;6.30;;;4.50;94.10;;;;;;6221043;28;20137;-75
2020/12/04 02:54:47;;;;;;;9.45;6.10;;;4.50;94.00;;;;;;6221562;28;20129;-75
2020/12/04 02:57:49;;;;;;;7.78;5.30;;;4.50;93.90;;;;;;6221392;28;20139;-75
2020/12/04 03:00:50;;;;;;;8.77;5.93;;;4.40;94.00;;;;;;6221320;28;20050;-75
2020/12/04 03:03:51;;;;;;;6.95;4.55;;;4.50;93.90;;;;;;6221399;28;20075;-75
2020/12/04 03:06:53;;;;;;;9.35;4.60;;;4.40;94.00;;;;;;6220763;28;20124;-75
2020/12/04 03:09:55;;;;;;;6.88;4.40;;;4.30;94.30;;;;;;6221602;28;20054;-75
2020/12/04 03:12:56;;;;;;;5.55;4.38;;;4.30;94.20;;;;;;6220622;28;20129;-75
2020/12/04 03:15:57;;;;;;;7.47;4.53;;;4.30;94.30;;;;;;6220817;28;20100;-74
2020/12/04 03:18:59;;;;;;;7.38;4.38;;;4.30;94.10;;;;;;6221338;28;20146;-75
2020/12/04 03:22:01;;;;;;;6.57;4.03;;;4.40;94.10;;;;;;6221248;28;20177;-75
2020/12/04 03:25:02;;;;;;;6.22;4.03;;;4.40;94.10;;;;;;6220634;28;20046;-75
2020/12/04 03:28:04;;;;;;;5.38;3.65;;;4.50;94.20;;;;;;6220940;28;20106;-75
2020/12/04 03:31:05;;;;;;;6.85;4.85;;;4.50;94.10;;;;;;6220682;28;20129;-75
2020/12/04 03:34:06;;;;;;;9.80;7.78;;;4.50;93.90;;;;;;6221618;28;20096;-74
2020/12/04 03:37:09;;;;;;;10.70;8.63;;;4.50;93.60;;;;;;6220228;28;20256;-75
2020/12/04 03:40:10;;;;;;;11.77;9.30;;;4.50;93.40;;;;;;6221325;28;20061;-75
2020/12/04 03:43:11;;;;;;;14.18;9.32;;;4.50;93.50;;;;;;6220461;28;20424;-75
2020/12/04 03:46:13;;;;;;;12.93;8.73;;;4.50;93.70;;;;;;6221123;28;20133;-75
2020/12/04 03:49:15;;;;;;;9.95;8.55;;;4.50;93.60;;;;;;6220769;28;20152;-74
2020/12/04 03:52:20;;;;;;;11.07;7.07;;;4.50;93.90;;;;;;6220701;28;20102;-74
2020/12/04 03:55:21;;;;;;;8.68;7.82;;;4.60;94.00;;;;;;6220696;28;20644;-75
2020/12/04 03:58:22;;;;;;;11.10;7.50;;;4.70;93.60;;;;;;6220748;28;20054;-75
2020/12/04 04:01:24;;;;;;;10.88;7.53;;;4.70;93.80;;;;;;6220311;28;20129;-75
2020/12/04 04:04:25;;;;;;;8.93;6.85;;;4.70;93.90;;;;;;6220654;28;20120;-75
2020/12/04 04:07:27;;;;;;;5.25;4.75;;;4.70;93.70;;;;;;6220442;28;20052;-75
2020/12/04 04:10:28;;;;;;;6.90;4.70;;;4.80;93.70;;;;;;6221064;28;20410;-75
2020/12/04 04:13:30;;;;;;;6.43;4.07;;;4.90;93.60;;;;;;6224630;28;20507;-74
2020/12/04 04:16:31;;;;;;;6.10;5.03;;;4.90;92.90;;;;;;6225139;28;20049;-75
2020/12/04 04:19:32;;;;;;;5.18;3.83;;;5.10;91.30;;;;;;6225524;28;20052;-75
2020/12/04 04:22:35;;;;;;;4.38;3.30;;;5.50;90.40;;;;;;6224858;28;20396;-76
2020/12/04 04:25:36;;;;;;;3.45;3.05;;;5.70;90.00;;;;;;6224794;28;20042;-75
2020/12/04 04:28:37;;;;;;;3.42;3.08;;;5.90;89.10;;;;;;6225518;28;20054;-74
2020/12/04 04:31:38;;;;;;;3.17;2.60;;;6.00;88.90;;;;;;6224383;28;20588;-75
2020/12/04 04:34:40;;;;;;;4.82;2.90;;;6.20;88.50;;;;;;6224536;28;20068;-75
2020/12/04 04:37:43;;;;;;;2.42;2.10;;;6.30;88.20;;;;;;6224863;28;20136;-76
2020/12/04 04:40:44;;;;;;;2.17;1.65;;;6.30;88.30;;;;;;6224730;28;20052;-75
2020/12/04 04:43:46;;;;;;;2.47;1.33;;;6.40;86.70;;;;;;6224102;28;20082;-75
2020/12/04 04:47:00;;;;;;;1.00;0.88;;;6.70;85.00;;;;;;6224425;28;20061;-74
2020/12/04 04:50:02;;;;;;;1.75;1.15;;;6.90;82.70;;;;;;6224441;28;20204;-75
2020/12/04 04:53:06;;;;;;;1.13;0.70;;;;;;;;;;6224148;28;20567;-75
2020/12/04 04:56:07;;;;;;;1.95;1.30;;;7.40;79.80;;;;;;6223717;28;20544;-75
2020/12/04 04:59:08;;;;;;;1.88;0.75;;;7.60;79.20;;;;;;6224164;28;20045;-75
2020/12/04 05:02:11;;;;;;;3.53;2.05;;;7.80;77.40;;;;;;6224184;28;20090;-75
2020/12/04 05:05:13;;;;;;;1.83;0.90;;;8.00;77.40;;;;;;6224189;28;20042;-75
2020/12/04 05:08:16;;;;;;;0.68;0.50;;;8.10;76.60;;;;;;6223872;28;20444;-75
2020/12/04 05:11:18;;;;;;;1.52;1.20;;;8.10;77.70;;;;;;6223808;28;20121;-76
2020/12/04 05:14:22;;;;;;;2.30;1.60;;;8.10;78.70;;;;;;6223790;28;20551;-75
2020/12/04 05:17:24;;;;;;;2.30;1.73;;;8.00;79.50;;;;;;6222803;28;20053;-75
2020/12/04 05:20:25;;;;;;;1.83;1.30;;;7.90;80.10;;;;;;6223040;28;20380;-75
2020/12/04 05:23:28;;;;;;;1.85;1.55;;;7.80;80.50;;;;;;6222516;28;20053;-76
2020/12/04 05:26:31;;;;;;;1.80;1.23;;;7.80;80.60;;;;;;6223052;28;20065;-75
2020/12/04 05:29:39;;;;;;;1.33;1.05;;;7.70;80.40;;;;;;6223686;28;20058;-75
2020/12/04 05:32:40;;;;;;;1.40;0.90;;;7.70;81.30;;;;;;6231186;28;20137;-75
2020/12/04 05:35:42;;;;;;;0.57;0.57;;;7.70;78.80;;;;;;6237942;28;20064;-76
2020/12/04 05:38:51;;;;;;;0.80;0.80;;;7.90;77.30;;;;;;6227055;28;20108;-75
2020/12/04 05:41:52;;;;;;;4.28;1.10;;;8.00;76.20;;;;;;6225663;28;20428;-76
2020/12/04 05:44:54;;;;;;;2.42;0.93;;;8.00;76.00;;;;;;6224057;28;20045;-75
2020/12/04 05:47:56;;;;;;;1.23;0.75;;;8.10;76.30;;;;;;6223727;28;20273;-75
2020/12/04 05:50:57;;;;;;;1.00;0.80;;;8.10;75.70;;;;;;6223547;28;20121;-76
2020/12/04 05:54:01;;;;;;;0.85;0.70;;;8.10;75.10;;;;;;6223979;28;20496;-75
2020/12/04 05:57:02;;;;;;;1.23;1.13;;;8.10;75.70;;;;;;6223358;28;20042;-75
2020/12/04 06:00:04;;;;;;;0.70;0.70;;;8.10;75.40;;;;;;6223484;28;20152;-76
2020/12/04 06:03:06;;;;;;;1.00;0.95;;;8.10;75.30;;;;;;6222438;28;20096;-76
2020/12/04 06:06:09;;;;;;;1.05;0.75;;;8.30;86.60;;;;;;6222733;28;20183;-76
2020/12/04 06:09:12;;;;;;;1.38;1.10;;;8.20;85.90;;;;;;6222425;28;20161;-76
2020/12/04 06:12:13;;;;;;;1.25;0.77;;;8.10;75.00;;;;;;6221899;28;20045;-76
2020/12/04 06:15:26;;;;;;;0.60;0.60;;;8.10;74.90;;;;;;6222201;28;20166;-76
2020/12/04 06:18:29;;;;;;;1.88;0.88;;;8.10;74.80;;;;;;6222857;28;20046;-76
2020/12/04 06:21:46;;;;;;;0.40;0.40;;;8.10;74.00;;;;;;6221805;28;20145;-76
2020/12/04 06:25:03;;;;;;;1.02;0.68;;;8.20;73.90;;;;;;6221905;28;20049;-75
2020/12/04 06:28:16;;;;;;;0.70;0.70;;;8.20;73.70;;;;;;6221842;28;20048;-76
2020/12/04 06:31:17;;;;;;;2.15;0.90;;;8.20;73.70;;;;;;6222029;28;20571;-76
2020/12/04 06:34:21;;;;;;;2.28;1.40;;;8.20;74.20;;;;;;6221803;28;20443;-76
2020/12/04 06:37:34;;;;;;;1.58;1.23;;;8.20;74.40;;;;;;6221172;28;20642;-76
2020/12/04 06:40:37;;;;;;;2.72;0.88;;;8.20;74.30;;;;;;6221995;28;20053;-76
2020/12/04 06:43:38;;;;;;;0.73;0.60;;;8.20;74.20;;;;;;6221811;28;20046;-76
2020/12/04 06:46:42;;;;;;;0.98;0.80;;;8.20;74.60;;;;;;6221295;28;20087;-76
2020/12/04 06:49:43;;;;;;;0.60;0.60;;;8.30;74.50;;;;;;6222677;28;20140;-76
2020/12/04 06:52:45;;;;;;;0.68;0.50;;;8.30;74.60;;;;;;6221514;28;20056;-77
2020/12/04 06:55:49;;;;;;;0.80;0.80;;;8.30;74.30;;;;;;6221299;28;20046;-76
2020/12/04 06:58:50;;;;;;;1.38;0.90;;;8.40;74.70;;;;;;6221334;28;20137;-76
2020/12/04 07:01:57;;;;;;;1.65;1.05;;;8.30;75.40;;;;;;6221614;28;20049;-76
2020/12/04 07:04:58;;;;;;;0.98;0.73;;;8.30;73.50;;;;;;6209535;28;20046;-76
2020/12/04 07:08:04;;;;;;;0.73;0.63;;;8.40;72.60;;;;;;6212691;28;20081;-76
2020/12/04 07:11:06;;;;;;;0.82;0.70;;;8.50;72.40;;;;;;6197387;28;20042;-76
2020/12/04 07:14:07;;;;;;;2.45;2.15;;;8.50;72.90;;;;;;6210734;28;20050;-76
2020/12/04 07:17:09;;;;;;;1.02;0.68;;;8.50;73.00;;;;;;6221115;28;20127;-76
2020/12/04 07:20:10;;;;;;;0.65;0.50;;;8.50;72.60;;;;;;6220833;28;20415;-76
2020/12/04 07:23:11;;;;;;;2.00;1.00;;;8.60;72.50;;;;;;6203305;28;20054;-76
2020/12/04 07:26:16;;;;;;;1.00;0.90;;;8.60;72.70;;;;;;6195979;28;20057;-76
2020/12/04 07:29:18;;;;;;;2.22;1.00;;;8.60;73.60;;;;;;6196407;28;20101;-77
2020/12/04 07:32:21;;;;;;;2.95;0.70;;;8.50;73.70;;;;;;6195879;28;20053;-76
2020/12/04 07:35:23;;;;;;;0.73;0.60;;;8.50;74.30;;;;;;6195970;28;20049;-76
2020/12/04 07:38:24;;;;;;;1.48;0.60;;;8.50;73.20;;;;;;6199821;28;20053;-76
2020/12/04 07:41:38;;;;;;;0.75;0.68;;;8.50;72.10;;;;;;6221764;28;20572;-75
2020/12/04 07:44:40;;;;;;;0.90;0.80;;;8.60;72.60;;;;;;6221269;28;20523;-76
2020/12/04 07:47:42;;;;;;;1.23;1.02;;;8.60;72.30;;;;;;6223573;28;20045;-75
2020/12/04 07:50:44;;;;;;;0.93;0.60;;;8.60;71.50;;;;;;6225744;28;20131;-76
2020/12/04 07:53:45;;;;;;;0.40;0.40;;;8.60;71.20;;;;;;6226380;28;20046;-76
2020/12/04 07:56:53;;;;;;;0.52;0.40;;;8.70;70.80;;;;;;6225680;28;20183;-76
2020/12/04 07:59:56;;;;;;;0.75;0.75;;;8.80;70.40;;;;;;6225526;28;20571;-76
2020/12/04 08:03:02;;;;;;;0.85;0.57;;;8.80;70.20;;;;;;6225055;28;20046;-76
2020/12/04 08:06:08;;;;;;;0.88;0.80;;;9.00;69.70;;;;;;6225121;28;20566;-76
2020/12/04 08:09:13;;;;;;;0.45;0.45;;;9.00;69.50;;;;;;6225384;28;20419;-76
2020/12/04 08:12:18;;;;;;;0.88;0.88;;;9.00;69.50;;;;;;6224275;28;20148;-76
2020/12/04 08:15:20;;;;;;;0.77;0.75;;;9.10;69.50;;;;;;6200848;28;20108;-76
2020/12/04 08:18:21;;;;;;;1.02;1.00;;;9.10;69.60;;;;;;6201332;28;20058;-76
2020/12/04 08:21:24;;;;;;;1.08;0.70;;;9.20;69.80;;;;;;6200477;28;20129;-76
2020/12/04 08:24:27;;;;;;;1.00;0.88;;;9.20;70.30;;;;;;6200455;28;20038;-76
2020/12/04 08:27:30;;;;;;;0.60;0.60;;;9.30;70.00;;;;;;6200463;28;20061;-76
2020/12/04 08:30:33;;;;;;;2.40;0.70;;;9.30;70.70;;;;;;6161141;28;20053;-76
2020/12/04 08:33:40;;;;;;;0.60;0.60;;;9.30;70.40;;;;;;6254357;23;20507;-73
2020/12/04 08:36:41;;;;;;;0.73;0.73;;;9.30;71.20;;;;;;6247675;28;20056;-74
2020/12/04 08:39:45;;;;;;;0.75;0.75;;;9.30;71.20;;;;;;6238665;28;20042;-74
2020/12/04 08:42:47;;;;;;;0.70;0.70;;;9.30;71.00;;;;;;6246319;28;20128;-74
2020/12/04 08:45:50;;;;;;;0.90;0.50;;;9.30;71.40;;;;;;6242331;28;20072;-74
2020/12/04 08:48:51;;;;;;;0.95;0.65;;;9.30;71.50;;;;;;6243547;28;20806;-74
2020/12/04 08:51:53;;;;;;;0.85;0.60;;;9.30;71.70;;;;;;6246058;28;20050;-74
2020/12/04 08:54:54;;;;;;;0.80;0.75;;;9.30;71.60;;;;;;6246688;28;20141;-74
2020/12/04 08:57:57;;;;;;;2.85;0.90;;;9.30;71.90;;;;;;6246576;28;20792;-74
2020/12/04 09:00:59;;;;;;;1.15;0.52;;;9.30;72.30;;;;;;6243579;28;20064;-74
2020/12/04 09:04:01;;;;;;;0.65;0.65;;;9.30;72.90;;;;;;6240915;28;20037;-74
2020/12/04 09:07:02;;;;;;;0.63;0.60;;;9.20;73.40;;;;;;6245219;28;20046;-74
2020/12/04 09:10:04;;;;;;;0.95;0.90;;;9.20;74.10;;;;;;6246133;28;20187;-74
2020/12/04 09:13:07;;;;;;;3.08;1.73;;;9.10;74.80;;;;;;6243969;28;20061;-74
2020/12/04 09:16:09;;;;;;;4.07;2.00;;;9.20;83.20;;;;;;6245412;28;20124;-74
2020/12/04 09:19:10;;;;;;;1.92;1.30;;;9.80;84.50;;;;;;6244871;28;20045;-74
2020/12/04 09:22:12;;;;;;;1.42;1.10;;;10.40;79.20;;;;;;6245521;28;20053;-74
2020/12/04 09:25:15;;;;;;;1.40;0.95;;;10.20;73.30;;;;;;6244972;28;20136;-74
2020/12/04 09:28:17;;;;;;;0.82;0.77;;;10.20;72.90;;;;;;6245111;28;20112;-75
2020/12/04 09:31:19;;;;;;;1.90;1.00;;;9.90;74.10;;;;;;6239790;28;20061;-74
2020/12/04 09:34:20;;;;;;;0.90;0.75;;;9.70;73.90;;;;;;6244666;28;20100;-75
2020/12/04 09:37:23;;;;;;;0.80;0.80;;;9.40;74.80;;;;;;6244377;28;20064;-75
2020/12/04 09:40:25;;;;;;;2.35;1.45;;;9.20;76.30;;;;;;6245006;28;20077;-75
2020/12/04 09:43:27;;;;;;;3.25;1.60;;;9.00;77.60;;;;;;6245314;28;20054;-74
2020/12/04 09:46:28;;;;;;;2.00;1.02;;;8.90;78.90;;;;;;6245433;28;20045;-74
2020/12/04 09:49:30;;;;;;;1.15;0.95;;;8.70;80.10;;;;;;6245539;28;20046;-74
2020/12/04 09:52:31;;;;;;;0.85;0.70;;;8.60;80.90;;;;;;6244962;28;20518;-74
2020/12/04 09:55:32;;;;;;;0.60;0.60;;;8.50;81.70;;;;;;6246145;28;20167;-74
2020/12/04 09:58:35;;;;;;;0.80;0.80;;;8.40;82.20;;;;;;6241973;28;20107;-74
2020/12/04 10:01:37;;;;;;;1.38;0.88;;;8.40;82.50;;;;;;6243428;28;20053;-74
2020/12/04 10:04:39;;;;;;;2.50;0.95;;;8.40;82.90;;;;;;6244805;28;20091;-74
2020/12/04 10:07:40;;;;;;;0.70;0.70;;;8.40;83.10;;;;;;6244275;28;20045;-74
2020/12/04 10:10:41;;;;;;;0.98;0.80;;;8.30;83.00;;;;;;6244303;28;20183;-74
2020/12/04 10:13:43;;;;;;;1.38;0.88;;;8.30;83.30;;;;;;6243928;28;20045;-75
2020/12/04 10:16:46;;;;;;;1.75;0.88;;;8.30;83.90;;;;;;6245038;28;20063;-75
2020/12/04 10:19:47;;;;;;;1.73;1.45;;;8.40;84.00;;;;;;6244564;28;20045;-74
2020/12/04 10:22:49;;;;;;;1.05;0.80;;;8.30;84.30;;;;;;6244579;28;20042;-74
2020/12/04 10:25:50;;;;;;;0.88;0.80;;;8.30;85.00;;;;;;6244928;28;20046;-74
2020/12/04 10:28:52;;;;;;;1.50;1.00;;;8.20;85.00;;;;;;6244076;28;20068;-74
2020/12/04 10:31:53;;;;;;;2.17;1.20;;;8.20;85.40;;;;;;6243943;28;20041;-75
2020/12/04 10:34:56;;;;;;;2.28;1.13;;;8.20;85.80;;;;;;6244342;28;20037;-74
2020/12/04 10:37:57;;;;;;;1.58;1.17;;;8.30;86.20;;;;;;6244072;28;20052;-74
2020/12/04 10:40:59;;;;;;;1.08;1.00;;;8.30;86.10;;;;;;6244283;28;20132;-74
2020/12/04 10:44:03;;;;;;;2.47;1.10;;;8.20;85.90;;;;;;6243381;28;20504;-74
2020/12/04 10:47:04;;;;;;;0.73;0.70;;;8.20;86.10;;;;;;6240807;28;20558;-74
2020/12/04 10:50:06;;;;;;;2.75;1.00;;;8.20;85.70;;;;;;6243694;28;20048;-74
2020/12/04 10:53:07;;;;;;;0.90;0.90;;;8.20;85.90;;;;;;6243347;28;20506;-74
2020/12/04 10:56:09;;;;;;;1.55;1.10;;;8.30;86.10;;;;;;6243376;28;20259;-74
2020/12/04 10:59:11;;;;;;;1.15;0.90;;;8.30;85.90;;;;;;6242565;28;20183;-75
2020/12/04 11:02:17;;;;;;;1.30;0.90;;;8.30;86.00;;;;;;6242545;28;20045;-75
2020/12/04 11:05:36;;;;;;;2.10;1.40;;;8.20;86.30;;;;;;6243032;28;20056;-75
2020/12/04 11:08:38;;;;;;;1.35;0.82;;;8.10;87.20;;;;;;6243022;28;20135;-74
2020/12/04 11:11:39;;;;;;;0.95;0.60;;;8.00;88.30;;;;;;6242405;28;20064;-75
2020/12/04 11:14:43;;;;;;;1.17;0.90;;;8.00;89.20;;;;;;6241346;28;20124;-75
2020/12/04 11:17:44;;;;;;;0.88;0.80;;;8.10;89.80;;;;;;6242720;28;20075;-74
2020/12/04 11:20:45;;;;;;;1.00;1.00;;;8.10;90.10;;;;;;6242653;28;20450;-74
2020/12/04 11:23:47;;;;;;;3.90;1.05;;;8.20;90.30;;;;;;6241577;28;20052;-74
2020/12/04 11:26:48;;;;;;;1.40;1.30;;;8.20;90.30;;;;;;6242110;28;20128;-75
2020/12/04 11:29:50;;;;;;;1.75;1.45;;;8.30;90.30;;;;;;6242530;28;20133;-75
2020/12/04 11:32:51;;;;;;;4.55;1.88;;;8.30;90.30;;;;;;6239208;28;20045;-75
2020/12/04 11:35:53;;;;;;;2.03;1.55;;;8.30;90.50;;;;;;6242754;28;20105;-75
2020/12/04 11:38:54;;;;;;;4.30;2.17;;;8.20;90.70;;;;;;6243735;28;20136;-75
2020/12/04 11:41:55;;;;;;;4.63;2.40;;;8.20;90.80;;;;;;6241182;28;20167;-76
2020/12/04 11:44:57;;;;;;;3.40;2.10;;;8.10;91.00;;;;;;6240313;28;20034;-75
2020/12/04 11:47:59;;;;;;;4.53;2.63;;;8.00;92.30;;;;;;6229700;28;20057;-75
2020/12/04 11:51:01;;;;;;;5.05;2.40;;;8.00;92.80;;;;;;6243431;28;20115;-75
2020/12/04 11:54:02;;;;;;;2.97;1.55;;;8.00;93.20;;;;;;6242230;28;20132;-75
2020/12/04 11:57:03;;;;;;;3.00;2.35;;;8.00;93.50;;;;;;6241638;28;20104;-76
2020/12/04 12:00:06;;;;;;;4.90;2.45;;;8.00;93.80;;;;;;6242623;28;20128;-74
2020/12/04 12:03:07;;;;;;;4.50;2.28;;;8.00;93.90;;;;;;6241384;28;20056;-75
2020/12/04 12:06:09;;;;;;;2.22;1.88;;;8.10;94.20;;;;;;6226738;28;20180;-74
2020/12/04 12:09:10;;;;;;;2.90;2.05;;;8.10;93.70;;;;;;6239213;28;20157;-74
2020/12/04 12:12:11;;;;;;;1.55;1.23;;;8.00;93.90;;;;;;6240727;28;20041;-74
2020/12/04 12:15:13;;;;;;;2.10;1.90;;;8.00;94.00;;;;;;6241454;28;20049;-74
2020/12/04 12:18:15;;;;;;;2.63;1.55;;;8.00;93.70;;;;;;6242226;28;20142;-74
2020/12/04 12:21:16;;;;;;;3.05;2.65;;;7.90;93.80;;;;;;6242030;28;20053;-74
2020/12/04 12:24:18;;;;;;;4.05;1.90;;;7.80;93.60;;;;;;6241336;28;20049;-74
2020/12/04 12:27:19;;;;;;;3.60;1.95;;;7.70;93.60;;;;;;6242743;28;20198;-74
2020/12/04 12:30:21;;;;;;;3.10;1.92;;;7.60;93.70;;;;;;6242172;28;20076;-73
2020/12/04 12:33:23;;;;;;;2.35;1.60;;;7.60;93.80;;;;;;6240457;28;20084;-74
2020/12/04 12:36:24;;;;;;;1.58;1.33;;;7.70;93.80;;;;;;6246124;28;20065;-74
2020/12/04 12:39:26;;;;;;;1.70;1.30;;;7.70;93.50;;;;;;6246218;28;20045;-75
2020/12/04 12:42:27;;;;;;;7.03;2.00;;;7.70;93.40;;;;;;6246072;28;20140;-75
2020/12/04 12:45:29;;;;;;;3.20;1.77;;;7.70;93.50;;;;;;6245996;28;20215;-74
2020/12/04 12:48:31;;;;;;;4.75;1.58;;;7.70;93.40;;;;;;6246582;28;20632;-75
2020/12/04 12:51:32;;;;;;;2.30;1.27;;;7.80;93.20;;;;;;6245628;28;20042;-75
2020/12/04 12:54:33;;;;;;;2.90;2.05;;;7.90;93.00;;;;;;6245916;28;20057;-75
2020/12/04 12:57:35;;;;;;;4.65;2.20;;;8.00;92.80;;;;;;6245933;28;20183;-74
2020/12/04 13:00:37;;;;;;;2.53;1.75;;;8.20;92.90;;;;;;6242928;28;20462;-75
2020/12/04 13:03:38;;;;;;;2.40;1.98;;;8.10;92.30;;;;;;6244975;28;20179;-75
2020/12/04 13:06:41;;;;;;;3.10;1.80;;;8.20;92.10;;;;;;6242970;28;20052;-75
2020/12/04 13:09:43;;;;;;;2.08;1.50;;;8.20;92.10;;;;;;6237873;28;20053;-75
2020/12/04 13:12:45;;;;;;;6.90;1.63;;;8.20;92.10;;;;;;6237933;28;20091;-75
2020/12/04 13:15:49;;;;;;;1.80;1.45;;;8.10;92.20;;;;;;6238695;28;20045;-75
2020/12/04 13:18:51;;;;;;;1.70;1.60;;;8.10;92.10;;;;;;6241600;28;20049;-75
2020/12/04 13:21:56;;;;;;;15.55;2.22;;;8.10;91.80;;;;;;6237268;28;20468;-75
2020/12/04 13:24:57;;;;;;;7.80;2.08;;;8.10;91.60;;;;;;6231363;28;20041;-74
2020/12/04 13:27:59;;;;;;;2.30;1.65;;;8.10;91.50;;;;;;6242523;28;20061;-75
2020/12/04 13:31:01;;;;;;;2.28;1.80;;;8.10;91.50;;;;;;6244671;28;20124;-74
2020/12/04 13:34:04;;;;;;;9.43;2.08;;;8.10;91.60;;;;;;6239919;28;20455;-75
2020/12/04 13:37:06;;;;;;;4.78;1.90;;;8.10;91.70;;;;;;6243898;28;20072;-74
2020/12/04 13:40:07;;;;;;;3.60;2.03;;;8.00;91.80;;;;;;6238346;28;20048;-75
2020/12/04 13:43:08;;;;;;;2.40;2.20;;;8.00;91.90;;;;;;6233361;28;20045;-75
2020/12/04 13:46:11;;;;;;;4.57;4.18;;;8.10;91.90;;;;;;6217466;28;20195;-75
2020/12/04 13:49:13;;;;;;;4.35;3.78;;;8.10;91.80;;;;;;6215175;28;20042;-75
2020/12/04 13:52:14;;;;;;;9.20;7.07;;;8.10;91.70;;;;;;6216810;28;20513;-75
2020/12/04 13:55:15;;;;;;;4.35;3.38;;;8.10;91.70;;;;;;6219519;28;20172;-75
2020/12/04 13:58:17;;;;;;;3.22;2.72;;;8.10;91.80;;;;;;6217735;28;20057;-75
2020/12/04 14:01:20;;;;;;;15.85;13.63;;;8.10;91.90;;;;;;6216893;28;20053;-75
2020/12/04 14:04:22;;;;;;;11.50;6.45;;;8.10;91.80;;;;;;6214574;28;20054;-75
2020/12/04 14:07:26;;;;;;;6.85;6.10;;;8.10;91.70;;;;;;6216594;28;20533;-74
2020/12/04 14:10:27;;;;;;;40.42;36.28;;;8.10;91.70;;;;;;6219776;28;20057;-75
2020/12/04 14:13:28;;;;;;;52.00;42.55;;;8.10;91.60;;;;;;6215700;28;20054;-75
2020/12/04 14:16:30;;;;;;;10.70;9.23;;;8.00;91.50;;;;;;6215978;28;20049;-75
2020/12/04 14:19:32;;;;;;;8.43;4.72;;;8.10;91.40;;;;;;6217896;28;20514;-75
2020/12/04 14:22:33;;;;;;;5.57;4.63;;;8.00;91.30;;;;;;6213142;28;20050;-75
2020/12/04 14:25:34;;;;;;;9.10;4.72;;;8.00;91.20;;;;;;6217209;28;20184;-76
2020/12/04 14:28:36;;;;;;;5.97;4.60;;;8.00;91.20;;;;;;6214191;28;20053;-75
2020/12/04 14:34:44;;;;;;;7.80;5.75;;;8.00;91.30;;;;;;6225245;28;20125;-76
2020/12/04 14:37:47;;;;;;;6.25;4.88;;;8.00;91.30;;;;;;6239548;28;20057;-77
2020/12/04 14:40:48;;;;;;;7.18;5.70;;;7.90;91.40;;;;;;6235735;28;20041;-76
2020/12/04 14:43:49;;;;;;;7.43;5.68;;;8.00;91.40;;;;;;6248009;28;20143;-75
2020/12/04 14:46:50;;;;;;;6.70;5.32;;;8.00;91.30;;;;;;6263002;28;20123;-75
2020/12/04 14:49:52;;;;;;;9.25;6.20;;;8.00;91.30;;;;;;6268913;28;20559;-76
2020/12/04 14:53:13;;;;;;;10.50;6.28;;;7.90;91.40;;;;;;6265540;28;20417;-75
2020/12/04 14:56:14;;;;;;;9.63;7.05;;;7.90;91.50;;;;;;6256845;28;20625;-76
2020/12/04 14:59:16;;;;;;;5.80;4.22;;;7.80;91.60;;;;;;6266152;28;20075;-76
2020/12/04 15:02:17;;;;;;;4.72;3.83;;;7.80;91.80;;;;;;6263211;28;20131;-77
2020/12/04 15:05:19;;;;;;;4.28;3.72;;;7.80;92.40;;;;;;6266406;28;20167;-76
2020/12/04 15:08:20;;;;;;;5.93;4.07;;;7.90;92.40;;;;;;6256262;28;20052;-76
2020/12/04 15:11:22;;;;;;;9.25;6.22;;;7.90;92.40;;;;;;6254241;28;20045;-76
2020/12/04 15:14:23;;;;;;;5.85;3.70;;;8.00;92.50;;;;;;6265691;28;20131;-76
2020/12/04 15:17:24;;;;;;;4.80;3.92;;;8.00;92.20;;;;;;6249531;28;20132;-76
2020/12/04 15:20:27;;;;;;;4.85;4.28;;;7.90;91.80;;;;;;6258061;28;20044;-76
2020/12/04 15:23:29;;;;;;;13.02;5.53;;;7.90;91.90;;;;;;6261356;28;20175;-76
2020/12/04 15:26:30;;;;;;;4.82;4.32;;;7.90;92.30;;;;;;6264407;28;20442;-77
2020/12/04 15:29:31;;;;;;;4.57;4.13;;;8.00;92.30;;;;;;6262528;28;20103;-76
2020/12/04 15:32:33;;;;;;;7.22;4.07;;;8.00;91.70;;;;;;6260553;28;20108;-76
2020/12/04 15:35:35;;;;;;;4.43;3.55;;;7.80;91.40;;;;;;6264810;28;20056;-76
2020/12/04 15:38:39;;;;;;;4.70;4.28;;;7.80;91.40;;;;;;6259554;28;20075;-77
2020/12/04 15:41:40;;;;;;;5.65;4.20;;;7.70;91.50;;;;;;6255444;28;20045;-76
2020/12/04 15:44:42;;;;;;;9.95;4.20;;;7.70;91.80;;;;;;6262343;28;20136;-76
2020/12/04 15:47:43;;;;;;;8.27;5.45;;;7.60;91.80;;;;;;6259420;28;20053;-76
2020/12/04 15:50:45;;;;;;;6.72;4.82;;;7.60;91.90;;;;;;6264806;28;20086;-76
2020/12/04 15:53:46;;;;;;;5.63;4.25;;;7.60;91.80;;;;;;6265477;28;20171;-77
2020/12/04 15:56:49;;;;;;;7.45;4.57;;;7.50;91.90;;;;;;6262275;28;20131;-76
2020/12/04 15:59:50;;;;;;;10.00;6.78;;;7.40;92.10;;;;;;6261959;28;20041;-76
2020/12/04 16:02:51;;;;;;;8.02;5.78;;;7.30;92.20;;;;;;6259157;28;20163;-77
2020/12/04 16:05:54;;;;;;;5.28;4.13;;;7.30;92.40;;;;;;6268106;28;20349;-76
2020/12/04 16:08:55;;;;;;;5.85;4.25;;;7.20;92.40;;;;;;6262552;28;20049;-76
2020/12/04 16:11:56;;;;;;;6.80;4.50;;;7.10;92.40;;;;;;6272400;28;20060;-76
2020/12/04 16:14:58;;;;;;;24.73;17.13;;;7.00;92.60;;;;;;6271304;28;20510;-77
2020/12/04 16:17:59;;;;;;;14.73;9.52;;;6.90;92.90;;;;;;6267081;28;20061;-76